createdAt,value
2018-05-06T00:07:08.265Z,15.57
2018-05-06T00:16:55.281Z,15.63
2018-05-06T00:26:54.087Z,14.90
2018-05-06T00:36:49.418Z,14.28
2018-05-06T00:46:46.324Z,14.02
2018-05-06T00:56:40.465Z,14.05
2018-05-06T01:06:38.006Z,13.98
2018-05-06T01:16:26.836Z,13.77
2018-05-06T01:26:10.065Z,13.68
2018-05-06T01:35:55.249Z,13.41
2018-05-06T01:45:43.786Z,13.09
2018-05-06T01:55:31.587Z,12.89
2018-05-06T02:05:20.465Z,12.88
2018-05-06T02:15:02.994Z,12.73
2018-05-06T02:24:52.613Z,12.48
2018-05-06T02:34:38.527Z,12.33
2018-05-06T02:44:23.296Z,12.33
2018-05-06T02:54:09.689Z,12.21
2018-05-06T03:03:52.167Z,12.12
2018-05-06T03:13:43.558Z,12.02
2018-05-06T03:23:31.681Z,11.95
2018-05-06T03:33:14.718Z,11.76
2018-05-06T03:43:01.597Z,11.87
2018-05-06T03:52:46.887Z,11.76
2018-05-06T04:02:35.794Z,11.94
2018-05-06T04:12:25.122Z,11.86
2018-05-06T04:22:09.906Z,11.81
2018-05-06T04:32:04.629Z,11.97
2018-05-06T04:42:00.638Z,12.02
2018-05-06T04:51:58.731Z,12.11
2018-05-06T05:01:55.761Z,12.27
2018-05-06T05:11:46.981Z,12.24
2018-05-06T05:21:45.776Z,12.55
2018-05-06T05:31:43.631Z,12.69
2018-05-06T05:41:37.468Z,12.89
2018-05-06T05:51:36.026Z,13.36
2018-05-06T06:01:34.010Z,13.68
2018-05-06T06:11:27.367Z,14.50
2018-05-06T06:21:25.209Z,14.59
2018-05-06T06:31:01.170Z,15.08
2018-05-06T06:40:57.434Z,15.35
2018-05-06T06:50:50.978Z,15.76
2018-05-06T07:00:44.662Z,15.97
2018-05-06T07:10:39.435Z,16.44
2018-05-06T07:20:35.373Z,16.66
2018-05-06T07:30:25.935Z,16.82
2018-05-06T07:40:19.507Z,17.40
2018-05-06T07:50:11.429Z,17.55
2018-05-06T08:00:06.211Z,17.84
2018-05-06T08:10:01.966Z,18.34
2018-05-06T08:20:00.088Z,18.47
2018-05-06T08:29:52.337Z,18.61
2018-05-06T08:39:48.318Z,18.65
2018-05-06T08:49:43.747Z,18.55
2018-05-06T08:59:40.667Z,19.01
2018-05-06T09:09:36.672Z,19.51
2018-05-06T09:19:33.946Z,19.87
2018-05-06T09:29:31.261Z,20.96
2018-05-06T09:39:30.970Z,21.57
2018-05-06T09:49:31.086Z,21.76
2018-05-06T09:59:24.450Z,21.42
2018-05-06T10:09:18.268Z,21.74
2018-05-06T10:19:16.371Z,22.20
2018-05-06T10:29:14.500Z,22.19
2018-05-06T10:39:13.649Z,23.26
2018-05-06T10:49:08.555Z,23.40
2018-05-06T10:58:43.619Z,23.55
2018-05-06T11:08:25.520Z,24.45
2018-05-06T11:18:00.391Z,24.78
2018-05-06T11:27:29.694Z,25.37
2018-05-06T11:37:07.547Z,27.19
2018-05-06T11:46:45.779Z,28.39
2018-05-06T11:56:24.135Z,28.10
2018-05-06T12:06:01.927Z,26.94
2018-05-06T12:15:43.485Z,26.99
2018-05-06T12:25:13.342Z,26.27
2018-05-06T12:34:52.565Z,27.08
2018-05-06T12:44:31.817Z,27.34
2018-05-06T12:54:06.803Z,27.88
2018-05-06T13:03:32.150Z,27.21
2018-05-06T13:13:13.106Z,29.78
2018-05-06T13:22:48.538Z,29.56
2018-05-06T13:32:30.651Z,30.11
2018-05-06T13:41:58.526Z,30.15
2018-05-06T13:51:38.460Z,29.78
2018-05-06T14:01:17.670Z,29.10
2018-05-06T14:10:59.664Z,29.18
2018-05-06T14:20:32.855Z,29.28
2018-05-06T14:30:04.026Z,29.31
2018-05-06T14:39:41.971Z,28.16
2018-05-06T14:49:19.175Z,28.41
2018-05-06T14:58:56.716Z,27.44
2018-05-06T15:08:35.883Z,29.22
2018-05-06T15:18:16.127Z,28.39
2018-05-06T15:27:49.788Z,29.14
2018-05-06T15:37:16.349Z,25.87
2018-05-06T15:46:50.783Z,25.40
2018-05-06T15:56:22.478Z,23.58
2018-05-06T16:05:56.314Z,22.53
2018-05-06T16:15:31.690Z,22.13
2018-05-06T16:25:11.743Z,21.78
2018-05-06T16:34:40.328Z,21.04
2018-05-06T16:44:34.268Z,20.84
2018-05-06T16:54:11.033Z,20.50
2018-05-06T17:04:06.626Z,20.01
2018-05-06T17:14:02.986Z,19.40
2018-05-06T17:23:57.893Z,18.89
2018-05-06T17:33:54.762Z,18.57
2018-05-06T17:43:51.544Z,18.18
2018-05-06T17:53:46.648Z,17.94
2018-05-06T18:03:45.244Z,17.58
2018-05-06T18:13:37.704Z,17.08
2018-05-06T18:23:28.518Z,16.55
2018-05-06T18:33:18.715Z,16.16
2018-05-06T18:43:14.802Z,15.85
2018-05-06T18:53:10.016Z,15.68
2018-05-06T19:03:02.422Z,15.15
2018-05-06T19:12:51.075Z,15.15
2018-05-06T19:22:43.282Z,14.78
2018-05-06T19:32:38.974Z,14.44
2018-05-06T19:42:32.265Z,14.27
2018-05-06T19:52:26.323Z,13.91
2018-05-06T20:02:21.895Z,13.95
2018-05-06T20:12:16.273Z,13.61
2018-05-06T20:22:05.876Z,13.48
2018-05-06T20:31:56.600Z,13.45
2018-05-06T20:41:45.114Z,13.43
2018-05-06T20:51:35.835Z,13.24
2018-05-06T21:01:26.417Z,13.21
2018-05-06T21:11:15.660Z,13.19
2018-05-06T21:21:03.155Z,13.03
2018-05-06T21:30:52.338Z,12.88
2018-05-06T21:40:43.190Z,12.79
2018-05-06T21:50:28.817Z,12.78
2018-05-06T22:00:20.234Z,12.79
2018-05-06T22:10:09.031Z,12.63
2018-05-06T22:19:56.252Z,12.45
2018-05-06T22:29:51.737Z,12.31
2018-05-06T22:39:43.131Z,12.24
2018-05-06T22:49:30.529Z,12.23
2018-05-06T22:59:20.603Z,11.94
2018-05-06T23:09:05.401Z,11.86
2018-05-06T23:18:52.586Z,11.53
2018-05-06T23:28:39.975Z,11.41
2018-05-06T23:38:28.497Z,11.38
2018-05-06T23:48:17.007Z,11.03
2018-05-06T23:58:06.864Z,11.10
